sensor_id;sensor_type;location;lat;lon;timestamp;P1;durP1;ratioP1;P2;durP2;ratioP2
51852;SDS011;37894;53.172;6.598;2023-03-14T00:01:22;27.42;;;4.65;;
51852;SDS011;37894;53.172;6.598;2023-03-14T00:03:48;24.80;;;5.07;;
51852;SDS011;37894;53.172;6.598;2023-03-14T00:06:14;15.05;;;4.90;;
51852;SDS011;37894;53.172;6.598;2023-03-14T00:08:41;25.33;;;4.55;;
51852;SDS011;37894;53.172;6.598;2023-03-14T00:11:09;19.10;;;4.07;;
51852;SDS011;37894;53.172;6.598;2023-03-14T00:13:42;25.52;;;5.10;;
51852;SDS011;37894;53.172;6.598;2023-03-14T00:16:10;22.08;;;4.40;;
51852;SDS011;37894;53.172;6.598;2023-03-14T00:18:36;16.30;;;3.78;;
51852;SDS011;37894;53.172;6.598;2023-03-14T00:21:03;21.70;;;4.47;;
51852;SDS011;37894;53.172;6.598;2023-03-14T00:23:31;19.05;;;4.57;;
51852;SDS011;37894;53.172;6.598;2023-03-14T00:26:02;23.73;;;5.50;;
51852;SDS011;37894;53.172;6.598;2023-03-14T00:28:29;19.60;;;4.35;;
51852;SDS011;37894;53.172;6.598;2023-03-14T00:30:55;23.00;;;4.93;;
51852;SDS011;37894;53.172;6.598;2023-03-14T00:33:21;20.40;;;4.75;;
51852;SDS011;37894;53.172;6.598;2023-03-14T00:35:54;16.70;;;3.83;;
51852;SDS011;37894;53.172;6.598;2023-03-14T00:38:24;22.90;;;4.90;;
51852;SDS011;37894;53.172;6.598;2023-03-14T00:40:51;17.73;;;4.22;;
51852;SDS011;37894;53.172;6.598;2023-03-14T00:43:17;20.80;;;4.30;;
51852;SDS011;37894;53.172;6.598;2023-03-14T00:45:43;14.40;;;3.25;;
51852;SDS011;37894;53.172;6.598;2023-03-14T00:48:09;19.20;;;4.57;;
51852;SDS011;37894;53.172;6.598;2023-03-14T00:50:35;13.73;;;3.90;;
51852;SDS011;37894;53.172;6.598;2023-03-14T00:53:01;17.10;;;4.32;;
51852;SDS011;37894;53.172;6.598;2023-03-14T00:55:27;23.05;;;5.15;;
51852;SDS011;37894;53.172;6.598;2023-03-14T00:57:52;19.00;;;4.75;;
51852;SDS011;37894;53.172;6.598;2023-03-14T01:00:18;26.08;;;4.50;;
51852;SDS011;37894;53.172;6.598;2023-03-14T01:02:44;19.73;;;4.03;;
51852;SDS011;37894;53.172;6.598;2023-03-14T01:05:09;16.23;;;4.03;;
51852;SDS011;37894;53.172;6.598;2023-03-14T01:07:36;15.18;;;3.60;;
51852;SDS011;37894;53.172;6.598;2023-03-14T01:10:02;20.38;;;4.95;;
51852;SDS011;37894;53.172;6.598;2023-03-14T01:12:29;22.50;;;4.10;;
51852;SDS011;37894;53.172;6.598;2023-03-14T01:14:55;24.13;;;4.03;;
51852;SDS011;37894;53.172;6.598;2023-03-14T01:17:21;17.25;;;3.97;;
51852;SDS011;37894;53.172;6.598;2023-03-14T01:19:47;17.55;;;3.67;;
51852;SDS011;37894;53.172;6.598;2023-03-14T01:22:13;19.23;;;4.10;;
51852;SDS011;37894;53.172;6.598;2023-03-14T01:24:39;17.02;;;4.40;;
51852;SDS011;37894;53.172;6.598;2023-03-14T01:27:04;19.23;;;3.97;;
51852;SDS011;37894;53.172;6.598;2023-03-14T01:29:30;19.25;;;4.97;;
51852;SDS011;37894;53.172;6.598;2023-03-14T01:31:56;18.23;;;3.95;;
51852;SDS011;37894;53.172;6.598;2023-03-14T01:34:22;21.00;;;3.97;;
51852;SDS011;37894;53.172;6.598;2023-03-14T01:36:48;13.45;;;2.95;;
51852;SDS011;37894;53.172;6.598;2023-03-14T01:39:14;14.68;;;3.50;;
51852;SDS011;37894;53.172;6.598;2023-03-14T01:41:40;14.15;;;3.58;;
51852;SDS011;37894;53.172;6.598;2023-03-14T01:44:08;17.70;;;3.92;;
51852;SDS011;37894;53.172;6.598;2023-03-14T01:51:31;16.30;;;3.83;;
51852;SDS011;37894;53.172;6.598;2023-03-14T02:00:01;15.43;;;3.50;;
51852;SDS011;37894;53.172;6.598;2023-03-14T02:02:36;15.13;;;2.97;;
51852;SDS011;37894;53.172;6.598;2023-03-14T02:05:04;17.10;;;4.18;;
51852;SDS011;37894;53.172;6.598;2023-03-14T02:07:39;17.38;;;4.95;;
51852;SDS011;37894;53.172;6.598;2023-03-14T02:10:10;17.90;;;4.20;;
51852;SDS011;37894;53.172;6.598;2023-03-14T02:12:37;14.82;;;3.83;;
51852;SDS011;37894;53.172;6.598;2023-03-14T02:15:04;17.60;;;3.17;;
51852;SDS011;37894;53.172;6.598;2023-03-14T02:17:30;14.52;;;3.05;;
51852;SDS011;37894;53.172;6.598;2023-03-14T02:20:03;16.13;;;3.20;;
51852;SDS011;37894;53.172;6.598;2023-03-14T02:22:32;12.20;;;3.65;;
51852;SDS011;37894;53.172;6.598;2023-03-14T02:27:30;12.02;;;2.72;;
51852;SDS011;37894;53.172;6.598;2023-03-14T02:30:04;13.02;;;3.10;;
51852;SDS011;37894;53.172;6.598;2023-03-14T02:32:33;18.90;;;3.00;;
51852;SDS011;37894;53.172;6.598;2023-03-14T02:35:03;13.80;;;3.10;;
51852;SDS011;37894;53.172;6.598;2023-03-14T02:37:33;9.35;;;2.65;;
51852;SDS011;37894;53.172;6.598;2023-03-14T02:42:29;11.05;;;3.08;;
51852;SDS011;37894;53.172;6.598;2023-03-14T02:47:33;9.88;;;3.00;;
51852;SDS011;37894;53.172;6.598;2023-03-14T02:50:05;14.98;;;3.78;;
51852;SDS011;37894;53.172;6.598;2023-03-14T02:52:43;10.10;;;2.97;;
51852;SDS011;37894;53.172;6.598;2023-03-14T02:55:09;7.93;;;2.70;;
51852;SDS011;37894;53.172;6.598;2023-03-14T02:57:35;10.52;;;3.38;;
51852;SDS011;37894;53.172;6.598;2023-03-14T03:00:01;13.68;;;3.45;;
51852;SDS011;37894;53.172;6.598;2023-03-14T03:02:31;11.35;;;2.55;;
51852;SDS011;37894;53.172;6.598;2023-03-14T03:04:57;16.83;;;3.10;;
51852;SDS011;37894;53.172;6.598;2023-03-14T03:07:23;12.32;;;3.17;;
51852;SDS011;37894;53.172;6.598;2023-03-14T03:09:49;9.27;;;2.70;;
51852;SDS011;37894;53.172;6.598;2023-03-14T03:12:15;11.57;;;3.65;;
51852;SDS011;37894;53.172;6.598;2023-03-14T03:14:40;8.65;;;2.85;;
51852;SDS011;37894;53.172;6.598;2023-03-14T03:17:06;8.65;;;2.70;;
51852;SDS011;37894;53.172;6.598;2023-03-14T03:19:33;10.55;;;3.10;;
51852;SDS011;37894;53.172;6.598;2023-03-14T03:22:00;12.65;;;3.55;;
51852;SDS011;37894;53.172;6.598;2023-03-14T03:24:26;14.27;;;3.53;;
51852;SDS011;37894;53.172;6.598;2023-03-14T03:26:52;13.68;;;3.65;;
51852;SDS011;37894;53.172;6.598;2023-03-14T03:29:18;12.00;;;3.40;;
51852;SDS011;37894;53.172;6.598;2023-03-14T03:31:44;17.27;;;4.32;;
51852;SDS011;37894;53.172;6.598;2023-03-14T03:34:10;12.40;;;4.03;;
51852;SDS011;37894;53.172;6.598;2023-03-14T03:36:37;10.73;;;4.22;;
51852;SDS011;37894;53.172;6.598;2023-03-14T03:39:03;16.05;;;3.70;;
51852;SDS011;37894;53.172;6.598;2023-03-14T03:41:29;13.63;;;4.70;;
51852;SDS011;37894;53.172;6.598;2023-03-14T03:43:55;14.57;;;4.45;;
51852;SDS011;37894;53.172;6.598;2023-03-14T03:46:21;14.82;;;4.50;;
51852;SDS011;37894;53.172;6.598;2023-03-14T03:48:47;18.55;;;4.80;;
51852;SDS011;37894;53.172;6.598;2023-03-14T03:51:14;16.70;;;4.10;;
51852;SDS011;37894;53.172;6.598;2023-03-14T03:53:41;15.25;;;4.70;;
51852;SDS011;37894;53.172;6.598;2023-03-14T03:56:08;14.07;;;4.55;;
51852;SDS011;37894;53.172;6.598;2023-03-14T03:58:34;17.90;;;4.88;;
51852;SDS011;37894;53.172;6.598;2023-03-14T04:01:00;17.65;;;4.70;;
51852;SDS011;37894;53.172;6.598;2023-03-14T04:03:26;19.02;;;5.20;;
51852;SDS011;37894;53.172;6.598;2023-03-14T04:05:59;23.95;;;5.43;;
51852;SDS011;37894;53.172;6.598;2023-03-14T04:08:30;21.42;;;6.30;;
51852;SDS011;37894;53.172;6.598;2023-03-14T04:10:57;15.63;;;5.60;;
51852;SDS011;37894;53.172;6.598;2023-03-14T04:13:24;15.07;;;5.18;;
51852;SDS011;37894;53.172;6.598;2023-03-14T04:15:50;19.60;;;5.43;;
51852;SDS011;37894;53.172;6.598;2023-03-14T04:18:17;17.17;;;5.55;;
51852;SDS011;37894;53.172;6.598;2023-03-14T04:20:43;17.75;;;6.43;;
51852;SDS011;37894;53.172;6.598;2023-03-14T04:23:09;18.25;;;5.47;;
51852;SDS011;37894;53.172;6.598;2023-03-14T04:25:34;22.10;;;6.47;;
51852;SDS011;37894;53.172;6.598;2023-03-14T04:28:01;19.70;;;5.70;;
51852;SDS011;37894;53.172;6.598;2023-03-14T04:30:26;22.95;;;6.30;;
51852;SDS011;37894;53.172;6.598;2023-03-14T04:32:52;20.95;;;6.13;;
51852;SDS011;37894;53.172;6.598;2023-03-14T04:35:18;19.73;;;7.15;;
51852;SDS011;37894;53.172;6.598;2023-03-14T04:37:43;17.00;;;7.07;;
51852;SDS011;37894;53.172;6.598;2023-03-14T04:40:09;19.20;;;6.65;;
51852;SDS011;37894;53.172;6.598;2023-03-14T04:42:36;15.55;;;6.25;;
51852;SDS011;37894;53.172;6.598;2023-03-14T04:45:01;19.63;;;7.80;;
51852;SDS011;37894;53.172;6.598;2023-03-14T04:47:27;17.20;;;7.75;;
51852;SDS011;37894;53.172;6.598;2023-03-14T04:49:53;17.20;;;7.22;;
51852;SDS011;37894;53.172;6.598;2023-03-14T04:52:19;16.40;;;6.60;;
51852;SDS011;37894;53.172;6.598;2023-03-14T04:54:45;21.20;;;7.57;;
51852;SDS011;37894;53.172;6.598;2023-03-14T04:57:11;25.35;;;7.90;;
51852;SDS011;37894;53.172;6.598;2023-03-14T04:59:36;18.48;;;7.68;;
51852;SDS011;37894;53.172;6.598;2023-03-14T05:02:02;20.35;;;7.03;;
51852;SDS011;37894;53.172;6.598;2023-03-14T05:04:28;21.25;;;8.05;;
51852;SDS011;37894;53.172;6.598;2023-03-14T05:06:54;19.08;;;6.55;;
51852;SDS011;37894;53.172;6.598;2023-03-14T05:09:20;14.77;;;7.40;;
51852;SDS011;37894;53.172;6.598;2023-03-14T05:11:45;22.23;;;6.97;;
51852;SDS011;37894;53.172;6.598;2023-03-14T05:14:11;15.98;;;6.82;;
51852;SDS011;37894;53.172;6.598;2023-03-14T05:16:37;16.38;;;6.85;;
51852;SDS011;37894;53.172;6.598;2023-03-14T05:19:03;17.30;;;6.53;;
51852;SDS011;37894;53.172;6.598;2023-03-14T05:21:28;17.40;;;6.70;;
51852;SDS011;37894;53.172;6.598;2023-03-14T05:23:54;20.98;;;7.25;;
51852;SDS011;37894;53.172;6.598;2023-03-14T05:26:20;20.67;;;7.20;;
51852;SDS011;37894;53.172;6.598;2023-03-14T05:28:45;17.02;;;7.65;;
51852;SDS011;37894;53.172;6.598;2023-03-14T05:31:11;20.02;;;7.47;;
51852;SDS011;37894;53.172;6.598;2023-03-14T05:33:37;19.58;;;7.03;;
51852;SDS011;37894;53.172;6.598;2023-03-14T05:36:03;19.10;;;7.80;;
51852;SDS011;37894;53.172;6.598;2023-03-14T05:38:28;18.25;;;7.03;;
51852;SDS011;37894;53.172;6.598;2023-03-14T05:40:54;16.27;;;7.28;;
51852;SDS011;37894;53.172;6.598;2023-03-14T05:43:20;20.33;;;7.68;;
51852;SDS011;37894;53.172;6.598;2023-03-14T05:45:45;20.15;;;6.38;;
51852;SDS011;37894;53.172;6.598;2023-03-14T05:48:11;20.58;;;7.50;;
51852;SDS011;37894;53.172;6.598;2023-03-14T05:50:37;15.98;;;6.95;;
51852;SDS011;37894;53.172;6.598;2023-03-14T05:53:02;21.70;;;5.97;;
51852;SDS011;37894;53.172;6.598;2023-03-14T05:55:29;18.52;;;5.97;;
51852;SDS011;37894;53.172;6.598;2023-03-14T05:57:54;13.25;;;5.55;;
51852;SDS011;37894;53.172;6.598;2023-03-14T06:00:20;16.77;;;5.80;;
51852;SDS011;37894;53.172;6.598;2023-03-14T06:02:46;17.10;;;6.25;;
51852;SDS011;37894;53.172;6.598;2023-03-14T06:05:12;16.70;;;5.72;;
51852;SDS011;37894;53.172;6.598;2023-03-14T06:07:38;15.57;;;6.32;;
51852;SDS011;37894;53.172;6.598;2023-03-14T06:10:04;15.95;;;6.38;;
51852;SDS011;37894;53.172;6.598;2023-03-14T06:12:30;16.10;;;6.95;;
51852;SDS011;37894;53.172;6.598;2023-03-14T06:14:56;17.58;;;5.85;;
51852;SDS011;37894;53.172;6.598;2023-03-14T06:17:22;16.30;;;5.65;;
51852;SDS011;37894;53.172;6.598;2023-03-14T06:19:47;14.35;;;5.95;;
51852;SDS011;37894;53.172;6.598;2023-03-14T06:22:13;18.42;;;6.85;;
51852;SDS011;37894;53.172;6.598;2023-03-14T06:24:39;14.82;;;5.45;;
51852;SDS011;37894;53.172;6.598;2023-03-14T06:27:05;11.95;;;6.10;;
51852;SDS011;37894;53.172;6.598;2023-03-14T06:29:30;17.38;;;6.82;;
51852;SDS011;37894;53.172;6.598;2023-03-14T06:31:56;14.80;;;6.78;;
51852;SDS011;37894;53.172;6.598;2023-03-14T06:34:22;19.27;;;7.35;;
51852;SDS011;37894;53.172;6.598;2023-03-14T06:36:48;15.85;;;5.38;;
51852;SDS011;37894;53.172;6.598;2023-03-14T06:39:14;9.00;;;2.15;;
51852;SDS011;37894;53.172;6.598;2023-03-14T06:41:39;8.40;;;1.30;;
51852;SDS011;37894;53.172;6.598;2023-03-14T06:44:05;4.15;;;1.10;;
51852;SDS011;37894;53.172;6.598;2023-03-14T06:46:31;8.43;;;1.35;;
51852;SDS011;37894;53.172;6.598;2023-03-14T06:48:57;11.60;;;1.70;;
51852;SDS011;37894;53.172;6.598;2023-03-14T06:51:23;14.43;;;1.90;;
51852;SDS011;37894;53.172;6.598;2023-03-14T06:53:50;13.40;;;1.65;;
51852;SDS011;37894;53.172;6.598;2023-03-14T06:56:16;11.05;;;1.52;;
51852;SDS011;37894;53.172;6.598;2023-03-14T06:58:42;13.95;;;1.83;;
51852;SDS011;37894;53.172;6.598;2023-03-14T07:01:17;11.98;;;1.83;;
51852;SDS011;37894;53.172;6.598;2023-03-14T07:03:50;19.67;;;2.22;;
51852;SDS011;37894;53.172;6.598;2023-03-14T07:06:16;15.15;;;2.08;;
51852;SDS011;37894;53.172;6.598;2023-03-14T07:08:41;13.13;;;2.05;;
51852;SDS011;37894;53.172;6.598;2023-03-14T07:11:07;12.07;;;1.70;;
51852;SDS011;37894;53.172;6.598;2023-03-14T07:13:36;14.75;;;1.75;;
51852;SDS011;37894;53.172;6.598;2023-03-14T07:16:05;9.15;;;1.73;;
51852;SDS011;37894;53.172;6.598;2023-03-14T07:18:31;11.23;;;1.45;;
51852;SDS011;37894;53.172;6.598;2023-03-14T07:20:57;11.07;;;1.30;;
51852;SDS011;37894;53.172;6.598;2023-03-14T07:23:23;15.13;;;1.67;;
51852;SDS011;37894;53.172;6.598;2023-03-14T07:25:49;15.73;;;2.08;;
51852;SDS011;37894;53.172;6.598;2023-03-14T07:28:16;6.88;;;1.15;;
51852;SDS011;37894;53.172;6.598;2023-03-14T07:30:42;6.18;;;1.17;;
51852;SDS011;37894;53.172;6.598;2023-03-14T07:33:07;4.50;;;0.90;;
51852;SDS011;37894;53.172;6.598;2023-03-14T07:35:33;5.15;;;1.27;;
51852;SDS011;37894;53.172;6.598;2023-03-14T07:37:59;4.50;;;1.17;;
51852;SDS011;37894;53.172;6.598;2023-03-14T07:40:25;5.90;;;0.98;;
51852;SDS011;37894;53.172;6.598;2023-03-14T07:42:51;3.88;;;1.00;;
51852;SDS011;37894;53.172;6.598;2023-03-14T07:45:20;6.88;;;0.93;;
51852;SDS011;37894;53.172;6.598;2023-03-14T07:47:45;3.75;;;0.80;;
51852;SDS011;37894;53.172;6.598;2023-03-14T07:50:12;7.40;;;1.00;;
51852;SDS011;37894;53.172;6.598;2023-03-14T07:52:37;4.60;;;0.90;;
51852;SDS011;37894;53.172;6.598;2023-03-14T07:55:03;6.47;;;1.25;;
51852;SDS011;37894;53.172;6.598;2023-03-14T07:57:29;3.63;;;1.00;;
51852;SDS011;37894;53.172;6.598;2023-03-14T07:59:55;2.42;;;0.70;;
51852;SDS011;37894;53.172;6.598;2023-03-14T08:02:21;3.13;;;0.70;;
51852;SDS011;37894;53.172;6.598;2023-03-14T08:04:49;2.83;;;0.70;;
51852;SDS011;37894;53.172;6.598;2023-03-14T08:07:15;2.63;;;0.85;;
51852;SDS011;37894;53.172;6.598;2023-03-14T08:09:40;6.18;;;0.82;;
51852;SDS011;37894;53.172;6.598;2023-03-14T08:12:07;3.50;;;0.80;;
51852;SDS011;37894;53.172;6.598;2023-03-14T08:14:33;6.70;;;0.73;;
51852;SDS011;37894;53.172;6.598;2023-03-14T08:16:58;1.83;;;0.70;;
51852;SDS011;37894;53.172;6.598;2023-03-14T08:19:24;6.05;;;1.10;;
51852;SDS011;37894;53.172;6.598;2023-03-14T08:21:50;6.05;;;0.98;;
51852;SDS011;37894;53.172;6.598;2023-03-14T08:24:16;7.88;;;1.10;;
51852;SDS011;37894;53.172;6.598;2023-03-14T08:26:42;9.52;;;0.90;;
51852;SDS011;37894;53.172;6.598;2023-03-14T08:29:08;8.70;;;1.20;;
51852;SDS011;37894;53.172;6.598;2023-03-14T08:31:34;6.38;;;1.83;;
51852;SDS011;37894;53.172;6.598;2023-03-14T08:34:00;4.57;;;0.80;;
51852;SDS011;37894;53.172;6.598;2023-03-14T08:36:27;5.75;;;1.00;;
51852;SDS011;37894;53.172;6.598;2023-03-14T08:38:53;9.77;;;1.23;;
51852;SDS011;37894;53.172;6.598;2023-03-14T08:41:19;6.95;;;1.50;;
51852;SDS011;37894;53.172;6.598;2023-03-14T08:43:45;6.78;;;1.20;;
51852;SDS011;37894;53.172;6.598;2023-03-14T08:46:10;8.98;;;1.70;;
51852;SDS011;37894;53.172;6.598;2023-03-14T08:48:36;8.52;;;1.80;;
51852;SDS011;37894;53.172;6.598;2023-03-14T08:51:10;9.05;;;1.63;;
51852;SDS011;37894;53.172;6.598;2023-03-14T08:53:40;8.77;;;2.13;;
51852;SDS011;37894;53.172;6.598;2023-03-14T08:56:06;10.57;;;1.98;;
51852;SDS011;37894;53.172;6.598;2023-03-14T08:58:35;13.27;;;1.80;;
51852;SDS011;37894;53.172;6.598;2023-03-14T09:01:03;15.75;;;2.30;;
51852;SDS011;37894;53.172;6.598;2023-03-14T09:03:30;17.13;;;2.35;;
51852;SDS011;37894;53.172;6.598;2023-03-14T09:06:00;8.18;;;1.70;;
51852;SDS011;37894;53.172;6.598;2023-03-14T09:10:54;13.43;;;2.00;;
51852;SDS011;37894;53.172;6.598;2023-03-14T09:13:19;10.80;;;2.17;;
51852;SDS011;37894;53.172;6.598;2023-03-14T09:15:49;14.75;;;2.60;;
51852;SDS011;37894;53.172;6.598;2023-03-14T09:18:16;13.90;;;2.13;;
51852;SDS011;37894;53.172;6.598;2023-03-14T09:20:42;15.40;;;2.58;;
51852;SDS011;37894;53.172;6.598;2023-03-14T09:23:08;17.45;;;3.40;;
51852;SDS011;37894;53.172;6.598;2023-03-14T09:25:34;13.25;;;2.42;;
51852;SDS011;37894;53.172;6.598;2023-03-14T09:27:59;14.05;;;2.22;;
51852;SDS011;37894;53.172;6.598;2023-03-14T09:30:25;25.05;;;4.47;;
51852;SDS011;37894;53.172;6.598;2023-03-14T09:32:51;24.13;;;3.08;;
51852;SDS011;37894;53.172;6.598;2023-03-14T09:35:17;19.17;;;2.78;;
51852;SDS011;37894;53.172;6.598;2023-03-14T09:37:43;27.63;;;4.00;;
51852;SDS011;37894;53.172;6.598;2023-03-14T09:40:12;17.23;;;3.60;;
51852;SDS011;37894;53.172;6.598;2023-03-14T09:42:40;12.07;;;2.92;;
51852;SDS011;37894;53.172;6.598;2023-03-14T09:45:10;14.70;;;2.78;;
51852;SDS011;37894;53.172;6.598;2023-03-14T09:47:42;17.65;;;2.80;;
51852;SDS011;37894;53.172;6.598;2023-03-14T09:50:15;29.63;;;3.88;;
51852;SDS011;37894;53.172;6.598;2023-03-14T09:52:48;14.40;;;2.60;;
51852;SDS011;37894;53.172;6.598;2023-03-14T09:55:20;11.50;;;2.53;;
51852;SDS011;37894;53.172;6.598;2023-03-14T09:57:47;16.20;;;2.28;;
51852;SDS011;37894;53.172;6.598;2023-03-14T10:00:20;15.15;;;2.53;;
51852;SDS011;37894;53.172;6.598;2023-03-14T10:03:24;19.55;;;2.50;;
51852;SDS011;37894;53.172;6.598;2023-03-14T10:06:02;19.33;;;3.25;;
51852;SDS011;37894;53.172;6.598;2023-03-14T10:08:38;24.00;;;3.30;;
51852;SDS011;37894;53.172;6.598;2023-03-14T10:14:16;21.75;;;3.05;;
51852;SDS011;37894;53.172;6.598;2023-03-14T10:16:41;20.30;;;3.08;;
51852;SDS011;37894;53.172;6.598;2023-03-14T10:19:16;23.88;;;3.42;;
51852;SDS011;37894;53.172;6.598;2023-03-14T10:21:52;20.02;;;3.08;;
51852;SDS011;37894;53.172;6.598;2023-03-14T10:24:20;15.63;;;2.70;;
51852;SDS011;37894;53.172;6.598;2023-03-14T10:26:48;15.93;;;3.55;;
51852;SDS011;37894;53.172;6.598;2023-03-14T10:29:18;13.20;;;2.95;;
51852;SDS011;37894;53.172;6.598;2023-03-14T10:31:52;18.63;;;2.58;;
51852;SDS011;37894;53.172;6.598;2023-03-14T10:34:25;19.25;;;3.80;;
51852;SDS011;37894;53.172;6.598;2023-03-14T10:36:53;11.18;;;2.25;;
51852;SDS011;37894;53.172;6.598;2023-03-14T10:39:27;11.70;;;2.88;;
51852;SDS011;37894;53.172;6.598;2023-03-14T10:42:19;11.63;;;2.38;;
51852;SDS011;37894;53.172;6.598;2023-03-14T10:45:02;11.70;;;2.28;;
51852;SDS011;37894;53.172;6.598;2023-03-14T10:47:32;14.55;;;1.80;;
51852;SDS011;37894;53.172;6.598;2023-03-14T10:50:19;13.77;;;2.38;;
51852;SDS011;37894;53.172;6.598;2023-03-14T10:52:48;24.73;;;3.05;;
51852;SDS011;37894;53.172;6.598;2023-03-14T10:55:16;9.82;;;2.97;;
51852;SDS011;37894;53.172;6.598;2023-03-14T10:57:42;9.50;;;1.98;;
51852;SDS011;37894;53.172;6.598;2023-03-14T11:00:19;14.70;;;1.88;;
51852;SDS011;37894;53.172;6.598;2023-03-14T11:03:03;8.40;;;2.03;;
51852;SDS011;37894;53.172;6.598;2023-03-14T11:05:40;8.15;;;1.92;;
51852;SDS011;37894;53.172;6.598;2023-03-14T11:08:17;10.90;;;2.00;;
51852;SDS011;37894;53.172;6.598;2023-03-14T11:10:50;12.73;;;2.33;;
51852;SDS011;37894;53.172;6.598;2023-03-14T11:21:51;7.88;;;1.52;;
51852;SDS011;37894;53.172;6.598;2023-03-14T11:24:39;16.42;;;2.20;;
51852;SDS011;37894;53.172;6.598;2023-03-14T11:27:22;7.95;;;2.22;;
51852;SDS011;37894;53.172;6.598;2023-03-14T11:29:55;9.57;;;1.95;;
51852;SDS011;37894;53.172;6.598;2023-03-14T11:32:53;6.35;;;1.70;;
51852;SDS011;37894;53.172;6.598;2023-03-14T11:38:19;4.70;;;1.30;;
51852;SDS011;37894;53.172;6.598;2023-03-14T11:40:59;6.82;;;1.80;;
51852;SDS011;37894;53.172;6.598;2023-03-14T11:46:44;7.40;;;1.58;;
51852;SDS011;37894;53.172;6.598;2023-03-14T11:52:15;6.78;;;1.30;;
51852;SDS011;37894;53.172;6.598;2023-03-14T11:54:55;8.75;;;2.22;;
51852;SDS011;37894;53.172;6.598;2023-03-14T11:57:26;4.93;;;1.30;;
51852;SDS011;37894;53.172;6.598;2023-03-14T12:05:43;8.70;;;1.65;;
51852;SDS011;37894;53.172;6.598;2023-03-14T12:08:22;9.50;;;1.60;;
51852;SDS011;37894;53.172;6.598;2023-03-14T12:14:25;6.63;;;1.67;;
51852;SDS011;37894;53.172;6.598;2023-03-14T12:16:54;7.72;;;1.92;;
51852;SDS011;37894;53.172;6.598;2023-03-14T12:24:18;15.48;;;1.95;;
51852;SDS011;37894;53.172;6.598;2023-03-14T12:26:52;9.25;;;2.38;;
51852;SDS011;37894;53.172;6.598;2023-03-14T12:29:19;9.13;;;1.73;;
51852;SDS011;37894;53.172;6.598;2023-03-14T12:31:47;7.28;;;1.40;;
51852;SDS011;37894;53.172;6.598;2023-03-14T12:36:51;7.25;;;2.10;;
51852;SDS011;37894;53.172;6.598;2023-03-14T12:45:13;8.65;;;1.70;;
51852;SDS011;37894;53.172;6.598;2023-03-14T13:07:02;14.48;;;2.83;;
51852;SDS011;37894;53.172;6.598;2023-03-14T13:11:55;10.13;;;2.08;;
51852;SDS011;37894;53.172;6.598;2023-03-14T13:14:25;8.20;;;1.67;;
51852;SDS011;37894;53.172;6.598;2023-03-14T13:16:55;11.57;;;2.40;;
51852;SDS011;37894;53.172;6.598;2023-03-14T13:19:27;9.98;;;1.70;;
51852;SDS011;37894;53.172;6.598;2023-03-14T13:22:05;7.50;;;1.60;;
51852;SDS011;37894;53.172;6.598;2023-03-14T13:24:46;11.70;;;1.50;;
51852;SDS011;37894;53.172;6.598;2023-03-14T13:27:18;7.63;;;1.60;;
51852;SDS011;37894;53.172;6.598;2023-03-14T13:29:47;9.05;;;1.70;;
51852;SDS011;37894;53.172;6.598;2023-03-14T13:32:22;11.52;;;1.67;;
51852;SDS011;37894;53.172;6.598;2023-03-14T13:34:55;5.63;;;1.50;;
51852;SDS011;37894;53.172;6.598;2023-03-14T13:37:22;7.75;;;1.33;;
51852;SDS011;37894;53.172;6.598;2023-03-14T13:39:50;9.80;;;1.50;;
51852;SDS011;37894;53.172;6.598;2023-03-14T13:42:18;5.85;;;1.40;;
51852;SDS011;37894;53.172;6.598;2023-03-14T13:44:44;8.73;;;1.42;;
51852;SDS011;37894;53.172;6.598;2023-03-14T13:47:15;7.32;;;1.50;;
51852;SDS011;37894;53.172;6.598;2023-03-14T13:49:42;7.57;;;1.83;;
51852;SDS011;37894;53.172;6.598;2023-03-14T13:52:22;9.27;;;1.33;;
51852;SDS011;37894;53.172;6.598;2023-03-14T13:54:55;7.68;;;1.40;;
51852;SDS011;37894;53.172;6.598;2023-03-14T13:57:22;8.60;;;1.75;;
51852;SDS011;37894;53.172;6.598;2023-03-14T14:00:05;5.55;;;1.60;;
51852;SDS011;37894;53.172;6.598;2023-03-14T14:02:34;8.35;;;1.70;;
51852;SDS011;37894;53.172;6.598;2023-03-14T14:05:02;6.97;;;1.83;;
51852;SDS011;37894;53.172;6.598;2023-03-14T14:07:29;9.38;;;1.88;;
51852;SDS011;37894;53.172;6.598;2023-03-14T14:09:55;8.07;;;1.77;;
51852;SDS011;37894;53.172;6.598;2023-03-14T14:15:01;10.63;;;2.22;;
51852;SDS011;37894;53.172;6.598;2023-03-14T14:17:34;11.30;;;1.70;;
51852;SDS011;37894;53.172;6.598;2023-03-14T14:20:05;6.25;;;1.52;;
51852;SDS011;37894;53.172;6.598;2023-03-14T14:22:33;4.57;;;1.27;;
51852;SDS011;37894;53.172;6.598;2023-03-14T14:25:00;8.73;;;1.10;;
51852;SDS011;37894;53.172;6.598;2023-03-14T14:27:33;6.72;;;1.40;;
51852;SDS011;37894;53.172;6.598;2023-03-14T14:30:06;6.40;;;1.02;;
51852;SDS011;37894;53.172;6.598;2023-03-14T14:32:41;7.65;;;1.30;;
51852;SDS011;37894;53.172;6.598;2023-03-14T14:35:08;4.50;;;1.10;;
51852;SDS011;37894;53.172;6.598;2023-03-14T14:37:41;8.27;;;1.50;;
51852;SDS011;37894;53.172;6.598;2023-03-14T14:42:46;7.53;;;1.50;;
51852;SDS011;37894;53.172;6.598;2023-03-14T14:45:14;7.95;;;1.52;;
51852;SDS011;37894;53.172;6.598;2023-03-14T14:47:57;15.43;;;1.98;;
51852;SDS011;37894;53.172;6.598;2023-03-14T14:50:30;10.30;;;2.08;;
51852;SDS011;37894;53.172;6.598;2023-03-14T14:52:57;10.30;;;1.70;;
51852;SDS011;37894;53.172;6.598;2023-03-14T14:55:29;11.95;;;1.77;;
51852;SDS011;37894;53.172;6.598;2023-03-14T14:58:09;11.90;;;2.20;;
51852;SDS011;37894;53.172;6.598;2023-03-14T15:00:51;8.50;;;1.65;;
51852;SDS011;37894;53.172;6.598;2023-03-14T15:03:19;12.38;;;2.63;;
51852;SDS011;37894;53.172;6.598;2023-03-14T15:05:45;10.93;;;1.88;;
51852;SDS011;37894;53.172;6.598;2023-03-14T15:08:11;7.13;;;1.50;;
51852;SDS011;37894;53.172;6.598;2023-03-14T15:10:37;5.28;;;1.23;;
51852;SDS011;37894;53.172;6.598;2023-03-14T15:13:03;5.00;;;1.42;;
51852;SDS011;37894;53.172;6.598;2023-03-14T15:15:29;10.40;;;1.50;;
51852;SDS011;37894;53.172;6.598;2023-03-14T15:17:55;9.82;;;1.60;;
51852;SDS011;37894;53.172;6.598;2023-03-14T15:20:21;5.72;;;1.40;;
51852;SDS011;37894;53.172;6.598;2023-03-14T15:22:50;5.38;;;1.52;;
51852;SDS011;37894;53.172;6.598;2023-03-14T15:25:16;6.78;;;1.60;;
51852;SDS011;37894;53.172;6.598;2023-03-14T15:27:42;4.97;;;1.27;;
51852;SDS011;37894;53.172;6.598;2023-03-14T15:30:12;7.75;;;1.60;;
51852;SDS011;37894;53.172;6.598;2023-03-14T15:32:39;6.82;;;1.40;;
51852;SDS011;37894;53.172;6.598;2023-03-14T15:35:05;9.40;;;1.52;;
51852;SDS011;37894;53.172;6.598;2023-03-14T15:37:30;12.57;;;2.28;;
51852;SDS011;37894;53.172;6.598;2023-03-14T15:39:56;7.57;;;1.90;;
51852;SDS011;37894;53.172;6.598;2023-03-14T15:42:25;9.40;;;2.05;;
51852;SDS011;37894;53.172;6.598;2023-03-14T15:44:50;7.72;;;1.98;;
51852;SDS011;37894;53.172;6.598;2023-03-14T15:47:16;10.85;;;1.92;;
51852;SDS011;37894;53.172;6.598;2023-03-14T15:49:42;10.10;;;2.33;;
51852;SDS011;37894;53.172;6.598;2023-03-14T15:52:09;9.02;;;1.80;;
51852;SDS011;37894;53.172;6.598;2023-03-14T15:54:35;11.43;;;2.08;;
51852;SDS011;37894;53.172;6.598;2023-03-14T15:57:01;8.40;;;1.52;;
51852;SDS011;37894;53.172;6.598;2023-03-14T15:59:27;12.57;;;2.05;;
51852;SDS011;37894;53.172;6.598;2023-03-14T16:01:53;8.70;;;2.20;;
51852;SDS011;37894;53.172;6.598;2023-03-14T16:04:19;10.98;;;2.55;;
51852;SDS011;37894;53.172;6.598;2023-03-14T16:06:45;6.55;;;2.10;;
51852;SDS011;37894;53.172;6.598;2023-03-14T16:09:11;12.73;;;1.90;;
51852;SDS011;37894;53.172;6.598;2023-03-14T16:11:37;8.80;;;1.67;;
51852;SDS011;37894;53.172;6.598;2023-03-14T16:14:03;10.52;;;2.08;;
51852;SDS011;37894;53.172;6.598;2023-03-14T16:16:29;8.57;;;2.20;;